createdAt,value
2019-03-17T00:02:23.065Z,7.20
2019-03-17T00:04:53.564Z,7.30
2019-03-17T00:07:24.042Z,7.30
2019-03-17T00:09:54.677Z,7.30
2019-03-17T00:12:25.196Z,7.40
2019-03-17T00:15:05.094Z,7.50
2019-03-17T00:17:27.993Z,7.50
2019-03-17T00:20:00.634Z,7.50
2019-03-17T00:22:31.088Z,7.50
2019-03-17T00:25:08.959Z,7.50
2019-03-17T00:27:34.889Z,7.60
2019-03-17T00:30:05.474Z,7.60
2019-03-17T00:32:35.944Z,7.60
2019-03-17T00:35:06.663Z,7.60
2019-03-17T00:37:38.213Z,7.60
2019-03-17T00:40:09.007Z,7.60
2019-03-17T00:42:39.670Z,7.60
2019-03-17T00:45:11.610Z,7.60
2019-03-17T00:47:42.496Z,7.60
2019-03-17T00:50:12.968Z,7.50
2019-03-17T00:52:43.468Z,7.50
2019-03-17T00:55:13.964Z,7.50
2019-03-17T00:57:44.485Z,7.50
2019-03-17T01:00:16.108Z,7.40
2019-03-17T01:02:46.690Z,7.50
2019-03-17T01:05:17.378Z,7.40
2019-03-17T01:07:47.878Z,7.40
2019-03-17T01:10:18.490Z,7.40
2019-03-17T01:12:48.998Z,7.40
2019-03-17T01:15:19.594Z,7.30
2019-03-17T01:17:50.221Z,7.30
2019-03-17T01:20:20.686Z,7.30
2019-03-17T01:22:51.200Z,7.30
2019-03-17T01:25:21.717Z,7.30
2019-03-17T01:27:52.205Z,7.30
2019-03-17T01:30:22.790Z,7.30
2019-03-17T01:32:53.242Z,7.30
2019-03-17T01:35:23.792Z,7.30
2019-03-17T01:37:54.278Z,7.30
2019-03-17T01:40:24.766Z,7.30
2019-03-17T01:42:55.220Z,7.30
2019-03-17T01:45:25.732Z,7.30
2019-03-17T01:47:56.291Z,7.30
2019-03-17T01:50:26.866Z,7.30
2019-03-17T01:52:57.353Z,7.30
2019-03-17T01:55:28.970Z,7.20
2019-03-17T01:57:59.594Z,7.20
2019-03-17T02:00:30.099Z,7.20
2019-03-17T02:03:00.640Z,7.30
2019-03-17T02:05:31.237Z,7.20
2019-03-17T02:08:01.913Z,7.20
2019-03-17T02:10:32.428Z,7.20
2019-03-17T02:13:03.016Z,7.20
2019-03-17T02:15:33.715Z,7.20
2019-03-17T02:18:04.312Z,7.30
2019-03-17T02:20:35.129Z,7.20
2019-03-17T02:23:07.179Z,7.30
2019-03-17T02:25:37.658Z,7.30
2019-03-17T02:28:08.281Z,7.20
2019-03-17T02:30:38.771Z,7.30
2019-03-17T02:33:09.383Z,7.30
2019-03-17T02:35:40.323Z,7.30
2019-03-17T02:38:10.984Z,7.20
2019-03-17T02:40:41.572Z,7.20
2019-03-17T02:43:12.129Z,7.20
2019-03-17T02:45:42.660Z,7.20
2019-03-17T02:48:13.260Z,7.20
2019-03-17T02:50:43.802Z,7.20
2019-03-17T02:53:14.293Z,7.10
2019-03-17T02:55:44.952Z,7.10
2019-03-17T02:58:15.752Z,7.10
2019-03-17T03:00:46.329Z,7.10
2019-03-17T03:03:16.877Z,7.10
2019-03-17T03:05:54.670Z,7.10
2019-03-17T03:08:19.796Z,7.10
2019-03-17T03:10:52.232Z,7.10
2019-03-17T03:13:22.815Z,7.20
2019-03-17T03:15:53.700Z,7.10
2019-03-17T03:18:24.275Z,7.10
2019-03-17T03:20:54.795Z,7.20
2019-03-17T03:23:25.583Z,7.20
2019-03-17T03:25:56.246Z,7.20
2019-03-17T03:28:26.817Z,7.20
2019-03-17T03:30:57.363Z,7.10
2019-03-17T03:33:27.941Z,7.20
2019-03-17T03:36:09.848Z,7.20
2019-03-17T03:38:30.848Z,7.20
2019-03-17T03:41:01.580Z,7.10
2019-03-17T03:43:32.246Z,7.10
2019-03-17T03:46:02.995Z,7.20
2019-03-17T03:48:33.521Z,7.20
2019-03-17T03:51:04.228Z,7.20
2019-03-17T03:53:34.796Z,7.30
2019-03-17T03:56:05.356Z,7.30
2019-03-17T03:58:35.897Z,7.30
2019-03-17T04:01:06.523Z,7.30
2019-03-17T04:03:38.220Z,7.20
2019-03-17T04:06:08.721Z,7.20
2019-03-17T04:08:39.337Z,7.20
2019-03-17T04:11:10.074Z,7.20
2019-03-17T04:13:40.637Z,7.20
2019-03-17T04:16:12.159Z,7.20
2019-03-17T04:18:42.675Z,7.20
2019-03-17T04:21:13.186Z,7.20
2019-03-17T04:23:43.756Z,7.10
2019-03-17T04:26:14.355Z,7.10
2019-03-17T04:28:44.885Z,7.00
2019-03-17T04:31:15.575Z,6.90
2019-03-17T04:33:46.166Z,6.80
2019-03-17T04:36:17.338Z,6.80
2019-03-17T04:38:47.720Z,6.70
2019-03-17T04:41:19.360Z,6.50
2019-03-17T04:43:49.797Z,6.40
2019-03-17T04:46:20.218Z,6.40
2019-03-17T04:48:50.873Z,6.30
2019-03-17T04:51:21.406Z,6.20
2019-03-17T04:53:51.865Z,6.10
2019-03-17T04:56:22.334Z,6.00
2019-03-17T04:58:52.816Z,6.00
2019-03-17T05:01:23.316Z,5.90
2019-03-17T05:03:54.856Z,5.90
2019-03-17T05:06:25.482Z,5.80
2019-03-17T05:08:55.957Z,5.80
2019-03-17T05:11:26.483Z,5.80
2019-03-17T05:13:57.049Z,5.90
2019-03-17T05:16:27.508Z,6.20
2019-03-17T05:18:58.091Z,6.70
2019-03-17T05:21:28.656Z,7.30
2019-03-17T05:23:59.189Z,8.00
2019-03-17T05:26:31.819Z,8.60
2019-03-17T05:29:02.319Z,9.30
2019-03-17T05:31:32.846Z,9.90
2019-03-17T05:34:03.500Z,10.40
2019-03-17T05:36:33.977Z,10.90
2019-03-17T05:39:05.687Z,11.40
2019-03-17T05:41:36.369Z,11.80
2019-03-17T05:44:06.824Z,12.10
2019-03-17T05:46:37.340Z,12.50
2019-03-17T05:49:07.769Z,12.80
2019-03-17T05:51:38.254Z,13.10
2019-03-17T05:54:08.742Z,13.50
2019-03-17T05:56:39.207Z,13.90
2019-03-17T05:59:09.690Z,14.40
2019-03-17T06:01:40.156Z,14.60
2019-03-17T06:04:10.687Z,14.80
2019-03-17T06:06:41.143Z,14.40
2019-03-17T06:09:11.701Z,13.30
2019-03-17T06:11:42.181Z,12.40
2019-03-17T06:14:12.781Z,11.70
2019-03-17T06:16:43.242Z,11.00
2019-03-17T06:19:13.859Z,10.40
2019-03-17T06:21:45.542Z,10.00
2019-03-17T06:24:16.063Z,9.40
2019-03-17T06:26:46.582Z,9.30
2019-03-17T06:29:17.167Z,9.10
2019-03-17T06:31:47.730Z,9.00
2019-03-17T06:34:18.215Z,8.90
2019-03-17T06:36:48.703Z,8.90
2019-03-17T06:39:19.358Z,8.90
2019-03-17T06:41:49.777Z,9.00
2019-03-17T06:44:20.290Z,9.20
2019-03-17T06:46:50.822Z,9.30
2019-03-17T06:49:21.307Z,9.30
2019-03-17T06:51:51.799Z,9.30
2019-03-17T06:54:22.309Z,9.40
2019-03-17T06:56:52.905Z,9.50
2019-03-17T06:59:23.340Z,9.50
2019-03-17T07:01:53.839Z,9.40
2019-03-17T07:04:24.544Z,9.40
2019-03-17T07:06:55.099Z,9.40
2019-03-17T07:09:25.850Z,9.30
2019-03-17T07:11:56.421Z,9.20
2019-03-17T07:14:26.985Z,9.20
2019-03-17T07:16:57.506Z,9.20
2019-03-17T07:19:29.072Z,9.30
2019-03-17T07:21:59.575Z,9.30
2019-03-17T07:24:30.054Z,9.40
2019-03-17T07:27:00.591Z,9.50
2019-03-17T07:29:31.261Z,9.60
2019-03-17T07:32:01.949Z,9.80
2019-03-17T07:34:32.466Z,9.90
2019-03-17T07:37:03.115Z,10.00
2019-03-17T07:39:33.666Z,10.10
2019-03-17T07:42:04.162Z,10.10
2019-03-17T07:44:34.737Z,10.10
2019-03-17T07:47:05.461Z,10.20
2019-03-17T07:49:36.189Z,10.40
2019-03-17T07:52:06.785Z,10.70
2019-03-17T07:54:37.245Z,10.90
2019-03-17T07:57:07.817Z,11.10
2019-03-17T07:59:38.344Z,11.20
2019-03-17T08:02:08.905Z,11.40
2019-03-17T08:04:42.967Z,11.60
2019-03-17T08:07:12.581Z,11.70
2019-03-17T08:09:43.197Z,11.90
2019-03-17T08:12:13.715Z,12.00
2019-03-17T08:14:44.361Z,12.20
2019-03-17T08:17:14.838Z,12.40
2019-03-17T08:19:45.357Z,12.50
2019-03-17T08:22:15.959Z,12.40
2019-03-17T08:24:46.555Z,12.40
2019-03-17T08:27:17.175Z,12.40
2019-03-17T08:29:47.971Z,12.40
2019-03-17T08:32:18.521Z,12.60
2019-03-17T08:34:49.028Z,12.40
2019-03-17T08:37:19.539Z,12.50
2019-03-17T08:39:51.183Z,12.40
2019-03-17T08:42:21.769Z,12.40
2019-03-17T08:44:52.273Z,12.30
2019-03-17T08:47:22.901Z,12.30
2019-03-17T08:49:53.437Z,12.50
2019-03-17T08:52:23.944Z,12.60
2019-03-17T08:54:54.519Z,12.80
2019-03-17T08:57:25.102Z,12.90
2019-03-17T08:59:55.633Z,13.00
2019-03-17T09:02:26.266Z,13.00
2019-03-17T09:04:56.711Z,13.10
2019-03-17T09:07:27.938Z,13.20
2019-03-17T09:09:58.609Z,13.30
2019-03-17T09:12:29.918Z,13.40
2019-03-17T09:15:00.634Z,13.40
2019-03-17T09:17:31.219Z,13.50
2019-03-17T09:20:01.819Z,13.60
2019-03-17T09:22:32.578Z,13.60
2019-03-17T09:25:03.215Z,13.70
2019-03-17T09:27:33.951Z,13.80
2019-03-17T09:30:05.000Z,13.80
2019-03-17T09:32:35.983Z,13.90
2019-03-17T09:35:06.681Z,14.00
2019-03-17T09:37:37.261Z,14.20
2019-03-17T09:40:08.631Z,14.30
2019-03-17T09:42:39.129Z,14.40
2019-03-17T09:45:10.242Z,14.50
2019-03-17T09:47:41.289Z,14.50
2019-03-17T09:50:12.154Z,14.60
2019-03-17T09:52:42.811Z,14.70
2019-03-17T09:55:13.743Z,14.90
2019-03-17T09:57:44.250Z,15.10
2019-03-17T10:00:14.703Z,15.40
2019-03-17T10:02:45.269Z,15.50
2019-03-17T10:05:15.732Z,15.60
2019-03-17T10:07:46.285Z,15.60
2019-03-17T10:10:16.955Z,15.70
2019-03-17T10:12:47.645Z,15.90
2019-03-17T10:15:18.238Z,16.20
2019-03-17T10:17:49.956Z,16.40
2019-03-17T10:20:21.569Z,16.60
2019-03-17T10:22:52.360Z,16.80
2019-03-17T10:25:22.917Z,16.80
2019-03-17T10:27:53.729Z,16.90
2019-03-17T10:30:24.373Z,17.00
2019-03-17T10:32:54.956Z,17.10
2019-03-17T10:35:25.410Z,17.20
2019-03-17T10:37:56.100Z,17.40
2019-03-17T10:40:26.680Z,17.60
2019-03-17T10:42:57.157Z,17.70
2019-03-17T10:45:27.611Z,17.70
2019-03-17T10:47:58.102Z,17.70
2019-03-17T10:50:28.560Z,17.60
2019-03-17T10:52:59.036Z,17.70
2019-03-17T10:55:29.535Z,17.60
2019-03-17T10:58:00.054Z,17.50
2019-03-17T11:00:30.572Z,17.50
2019-03-17T11:03:01.041Z,17.40
2019-03-17T11:05:31.667Z,17.30
2019-03-17T11:08:02.201Z,17.10
2019-03-17T11:10:32.737Z,16.80
2019-03-17T11:13:03.220Z,16.80
2019-03-17T11:15:33.777Z,16.90
2019-03-17T11:18:04.340Z,17.10
2019-03-17T11:20:34.947Z,17.40
2019-03-17T11:23:05.371Z,17.50
2019-03-17T11:25:36.000Z,17.70
2019-03-17T11:28:07.584Z,17.70
2019-03-17T11:30:39.194Z,17.70
2019-03-17T11:33:09.729Z,17.70
2019-03-17T11:35:40.290Z,17.80
2019-03-17T11:38:10.817Z,17.90
2019-03-17T11:40:41.361Z,17.70
2019-03-17T11:43:11.898Z,17.70
2019-03-17T11:45:42.307Z,17.80
2019-03-17T11:48:12.902Z,17.70
2019-03-17T11:50:43.336Z,17.90
2019-03-17T11:53:13.901Z,18.10
2019-03-17T11:55:44.466Z,18.30
2019-03-17T11:58:15.063Z,18.40
2019-03-17T12:00:45.550Z,18.60
2019-03-17T12:03:16.053Z,18.60
2019-03-17T12:05:46.633Z,18.60
2019-03-17T12:08:17.403Z,18.70
2019-03-17T12:10:48.014Z,18.60
2019-03-17T12:13:18.511Z,18.50
2019-03-17T12:15:49.029Z,18.50
2019-03-17T12:18:19.764Z,18.60
2019-03-17T12:20:50.371Z,18.50
2019-03-17T12:23:20.962Z,18.60
2019-03-17T12:25:51.500Z,18.70
2019-03-17T12:28:22.040Z,18.80
2019-03-17T12:30:52.571Z,19.10
2019-03-17T12:33:23.017Z,19.30
2019-03-17T12:35:53.485Z,19.50
2019-03-17T12:38:24.077Z,19.70
2019-03-17T12:40:54.646Z,19.60
2019-03-17T12:43:25.206Z,19.50
2019-03-17T12:45:55.714Z,19.60
2019-03-17T12:48:26.214Z,19.60
2019-03-17T12:50:56.728Z,19.50
2019-03-17T12:53:27.275Z,19.50
2019-03-17T12:55:57.808Z,19.40
2019-03-17T12:58:28.369Z,19.30
2019-03-17T13:00:58.841Z,19.30
2019-03-17T13:03:30.156Z,19.30
2019-03-17T13:06:00.704Z,19.40
2019-03-17T13:08:31.449Z,19.40
2019-03-17T13:11:01.995Z,19.40
2019-03-17T13:13:32.642Z,19.50
2019-03-17T13:16:03.154Z,19.60
2019-03-17T13:18:33.709Z,19.60
2019-03-17T13:21:04.221Z,19.60
2019-03-17T13:23:34.696Z,19.60
2019-03-17T13:26:06.088Z,19.70
2019-03-17T13:28:36.696Z,19.80
2019-03-17T13:31:07.219Z,20.10
2019-03-17T13:33:37.715Z,20.20
2019-03-17T13:36:09.944Z,20.20
2019-03-17T13:38:40.606Z,20.10
2019-03-17T13:41:11.588Z,20.00
2019-03-17T13:43:42.134Z,19.90
2019-03-17T13:46:12.805Z,19.90
2019-03-17T13:48:43.265Z,19.80
2019-03-17T13:51:13.787Z,19.80
2019-03-17T13:53:44.279Z,19.70
2019-03-17T13:56:14.760Z,19.80
2019-03-17T13:58:45.302Z,19.90
2019-03-17T14:01:15.877Z,20.00
2019-03-17T14:03:46.436Z,20.10
2019-03-17T14:06:16.895Z,20.00
2019-03-17T14:08:47.378Z,20.00
2019-03-17T14:11:17.890Z,20.10
2019-03-17T14:13:48.355Z,20.10
2019-03-17T14:16:19.725Z,20.20
2019-03-17T14:18:50.687Z,20.20
2019-03-17T14:21:21.188Z,20.20
2019-03-17T14:23:51.758Z,20.00
2019-03-17T14:26:22.308Z,20.00
2019-03-17T14:28:53.277Z,19.90
2019-03-17T14:31:24.276Z,19.90
2019-03-17T14:33:54.739Z,19.80
2019-03-17T14:36:26.434Z,19.80
2019-03-17T14:38:56.971Z,19.80
2019-03-17T14:41:27.681Z,19.90
2019-03-17T14:43:58.642Z,19.90
2019-03-17T14:46:29.141Z,19.80
2019-03-17T14:48:59.654Z,19.80
2019-03-17T14:51:30.094Z,19.80
2019-03-17T14:54:00.578Z,19.80
2019-03-17T14:56:32.156Z,19.70
2019-03-17T14:59:02.661Z,19.70
2019-03-17T15:01:33.153Z,19.60
2019-03-17T15:04:03.680Z,19.60
2019-03-17T15:06:34.201Z,19.60
2019-03-17T15:09:07.450Z,19.50
2019-03-17T15:11:37.917Z,19.50
2019-03-17T15:14:08.431Z,19.50
2019-03-17T15:16:39.080Z,19.40
2019-03-17T15:19:09.807Z,19.30
2019-03-17T15:21:40.331Z,19.00
2019-03-17T15:24:11.062Z,18.80
2019-03-17T15:26:42.138Z,18.70
2019-03-17T15:29:12.651Z,18.50
2019-03-17T15:31:43.200Z,18.50
2019-03-17T15:34:13.798Z,18.40
2019-03-17T15:36:44.406Z,18.30
2019-03-17T15:39:15.082Z,18.30
2019-03-17T15:41:46.631Z,18.20
2019-03-17T15:44:17.231Z,18.10
2019-03-17T15:46:47.944Z,18.00
2019-03-17T15:49:18.714Z,17.90
2019-03-17T15:51:49.252Z,17.90
2019-03-17T15:54:21.511Z,17.80
2019-03-17T15:56:52.028Z,17.70
2019-03-17T15:59:22.704Z,17.60
2019-03-17T16:01:53.150Z,17.50
2019-03-17T16:04:23.726Z,17.40
2019-03-17T16:06:54.268Z,17.30
2019-03-17T16:09:24.907Z,17.20
2019-03-17T16:11:55.480Z,17.10
2019-03-17T16:14:25.884Z,17.00
2019-03-17T16:16:56.452Z,17.00
2019-03-17T16:19:30.304Z,16.90
2019-03-17T16:22:01.656Z,16.80
2019-03-17T16:24:33.202Z,16.80
2019-03-17T16:27:03.642Z,16.70
2019-03-17T16:29:34.216Z,16.60
2019-03-17T16:32:05.088Z,16.50
2019-03-17T16:34:35.598Z,16.50
2019-03-17T16:37:06.162Z,16.40
2019-03-17T16:39:36.792Z,16.40
2019-03-17T16:42:07.389Z,16.30
2019-03-17T16:44:37.962Z,16.30
2019-03-17T16:47:08.696Z,16.20
2019-03-17T16:49:39.314Z,16.10
2019-03-17T16:52:09.921Z,16.00
2019-03-17T16:54:40.528Z,16.00
2019-03-17T16:57:11.756Z,15.90
2019-03-17T16:59:42.264Z,15.80
2019-03-17T17:02:12.851Z,15.70
2019-03-17T17:04:43.441Z,15.50
2019-03-17T17:07:14.067Z,15.40
2019-03-17T17:09:44.636Z,15.30
2019-03-17T17:12:15.434Z,15.20
2019-03-17T17:14:46.041Z,15.10
2019-03-17T17:17:16.494Z,15.00
2019-03-17T17:19:47.176Z,14.90
2019-03-17T17:22:17.787Z,14.80
2019-03-17T17:24:48.384Z,14.70
2019-03-17T17:27:20.666Z,14.60
2019-03-17T17:29:51.198Z,14.50
2019-03-17T17:32:21.715Z,14.50
2019-03-17T17:34:53.422Z,14.40
2019-03-17T17:37:24.120Z,14.30
2019-03-17T17:39:54.766Z,14.30
2019-03-17T17:42:25.402Z,14.20
2019-03-17T17:44:55.890Z,14.20
2019-03-17T17:47:29.988Z,14.20
2019-03-17T17:50:00.550Z,14.20
2019-03-17T17:52:31.239Z,14.10
2019-03-17T17:55:01.799Z,14.10
2019-03-17T17:57:32.541Z,14.10
2019-03-17T18:00:03.058Z,14.20
2019-03-17T18:02:33.597Z,14.10
2019-03-17T18:05:04.547Z,14.10
2019-03-17T18:07:35.168Z,14.00
2019-03-17T18:10:06.570Z,14.10
2019-03-17T18:12:37.098Z,14.00
2019-03-17T18:15:09.204Z,13.90
2019-03-17T18:17:39.948Z,13.80
2019-03-17T18:20:11.289Z,13.70
2019-03-17T18:22:41.816Z,13.70
2019-03-17T18:25:13.397Z,13.60
2019-03-17T18:27:43.923Z,13.60
2019-03-17T18:30:15.866Z,13.60
2019-03-17T18:32:46.353Z,13.60
2019-03-17T18:35:17.098Z,13.60
2019-03-17T18:37:47.613Z,13.60
2019-03-17T18:40:18.126Z,13.60
2019-03-17T18:42:48.671Z,13.50
2019-03-17T18:45:20.343Z,13.60
2019-03-17T18:47:50.874Z,13.60
2019-03-17T18:50:21.405Z,13.70
2019-03-17T18:52:51.912Z,13.60
2019-03-17T18:55:22.414Z,13.60
2019-03-17T18:57:52.909Z,13.60
2019-03-17T19:00:23.465Z,13.50
2019-03-17T19:02:54.055Z,13.50
2019-03-17T19:05:24.764Z,13.50
2019-03-17T19:07:55.419Z,13.50
2019-03-17T19:10:25.904Z,13.40
2019-03-17T19:12:56.657Z,13.40
2019-03-17T19:15:27.218Z,13.30
2019-03-17T19:17:57.648Z,13.30
2019-03-17T19:20:28.228Z,13.10
2019-03-17T19:22:58.719Z,13.00
2019-03-17T19:25:29.292Z,12.90
2019-03-17T19:27:59.740Z,12.90
2019-03-17T19:30:30.449Z,12.80
2019-03-17T19:33:01.075Z,12.90
2019-03-17T19:35:32.769Z,12.90
2019-03-17T19:38:03.394Z,12.90
2019-03-17T19:40:34.133Z,13.00
2019-03-17T19:43:04.710Z,13.10
2019-03-17T19:45:36.246Z,13.10
2019-03-17T19:48:06.754Z,13.20
2019-03-17T19:50:37.326Z,13.20
2019-03-17T19:53:07.868Z,13.30
2019-03-17T19:55:38.391Z,13.40
2019-03-17T19:58:08.934Z,13.50
2019-03-17T20:00:39.471Z,13.70
2019-03-17T20:03:10.081Z,13.50
2019-03-17T20:05:40.554Z,12.50
2019-03-17T20:08:11.140Z,12.10
2019-03-17T20:10:41.686Z,11.50
2019-03-17T20:13:12.385Z,11.10
2019-03-17T20:15:43.178Z,10.90
2019-03-17T20:18:13.861Z,10.70
2019-03-17T20:20:44.440Z,10.60
2019-03-17T20:23:15.198Z,10.30
2019-03-17T20:25:45.849Z,10.00
2019-03-17T20:28:16.471Z,9.80
2019-03-17T20:30:47.021Z,9.70
2019-03-17T20:33:17.596Z,9.60
2019-03-17T20:35:48.221Z,9.40
2019-03-17T20:38:18.990Z,9.30
2019-03-17T20:40:49.699Z,9.20
2019-03-17T20:43:34.077Z,9.10
2019-03-17T20:45:52.609Z,9.10
2019-03-17T20:48:23.287Z,9.00
2019-03-17T20:50:53.815Z,8.80
2019-03-17T20:53:24.341Z,8.70
2019-03-17T20:55:54.937Z,8.50
2019-03-17T20:58:25.435Z,8.40
2019-03-17T21:00:55.953Z,8.30
2019-03-17T21:03:26.509Z,8.20
2019-03-17T21:05:57.028Z,8.00
2019-03-17T21:08:27.485Z,8.00
2019-03-17T21:10:58.125Z,7.90
2019-03-17T21:13:30.265Z,7.80
2019-03-17T21:16:01.726Z,7.80
2019-03-17T21:18:32.198Z,7.70
2019-03-17T21:21:02.763Z,7.60
2019-03-17T21:23:33.326Z,7.60
2019-03-17T21:26:03.836Z,7.50
2019-03-17T21:28:34.423Z,7.50
2019-03-17T21:31:04.957Z,7.50
2019-03-17T21:33:35.497Z,7.50
2019-03-17T21:36:06.077Z,7.50
2019-03-17T21:38:36.658Z,7.50
2019-03-17T21:41:08.696Z,7.50
2019-03-17T21:43:39.273Z,7.60
2019-03-17T21:46:09.745Z,7.60
2019-03-17T21:48:40.309Z,7.60
2019-03-17T21:51:10.963Z,7.60
2019-03-17T21:53:41.640Z,7.60
2019-03-17T21:56:12.180Z,7.60
2019-03-17T21:58:42.675Z,7.60
2019-03-17T22:01:13.337Z,7.50
2019-03-17T22:03:44.018Z,7.50
2019-03-17T22:06:14.590Z,7.50
2019-03-17T22:08:45.211Z,7.40
2019-03-17T22:11:15.714Z,7.50
2019-03-17T22:13:50.196Z,7.40
2019-03-17T22:16:20.927Z,7.40
2019-03-17T22:18:51.589Z,7.40
2019-03-17T22:21:22.197Z,7.30
2019-03-17T22:23:52.795Z,7.30
2019-03-17T22:26:23.433Z,7.30
2019-03-17T22:28:55.048Z,7.30
2019-03-17T22:31:25.765Z,7.30
2019-03-17T22:33:56.251Z,7.40
2019-03-17T22:36:26.719Z,7.30
2019-03-17T22:38:57.322Z,7.30
2019-03-17T22:41:29.002Z,7.40
2019-03-17T22:44:00.679Z,7.30
2019-03-17T22:46:31.192Z,7.40
2019-03-17T22:49:01.797Z,7.30
2019-03-17T22:51:32.399Z,7.30
2019-03-17T22:54:02.903Z,7.30
2019-03-17T22:56:33.429Z,7.30
2019-03-17T22:59:04.154Z,7.20
2019-03-17T23:01:34.979Z,7.30
2019-03-17T23:04:05.934Z,7.20
2019-03-17T23:06:36.708Z,7.30
2019-03-17T23:09:08.539Z,7.30
2019-03-17T23:11:39.299Z,7.20
2019-03-17T23:14:11.637Z,7.10
2019-03-17T23:16:42.334Z,7.00
2019-03-17T23:19:13.081Z,7.00
2019-03-17T23:21:43.793Z,6.90
2019-03-17T23:24:14.631Z,6.80
2019-03-17T23:26:45.386Z,6.70
2019-03-17T23:29:16.106Z,6.70
2019-03-17T23:31:46.880Z,6.60
2019-03-17T23:34:17.585Z,6.50
2019-03-17T23:36:48.449Z,6.50
2019-03-17T23:39:19.257Z,6.50
2019-03-17T23:41:50.053Z,6.50
2019-03-17T23:44:20.870Z,6.40
2019-03-17T23:46:51.613Z,6.40
2019-03-17T23:49:22.527Z,6.40
2019-03-17T23:51:53.236Z,6.40
2019-03-17T23:54:23.989Z,6.40
2019-03-17T23:56:54.697Z,6.30
2019-03-17T23:59:25.476Z,6.30
